sensor_id;sensor_type;location;lat;lon;timestamp;temperature;humidity
41344;DHT22;27089;50.022;7.604;2022-12-07T00:01:16;3.60;99.90
41344;DHT22;27089;50.022;7.604;2022-12-07T00:03:45;3.60;99.90
41344;DHT22;27089;50.022;7.604;2022-12-07T00:06:15;3.60;99.90
41344;DHT22;27089;50.022;7.604;2022-12-07T00:08:43;3.60;99.90
41344;DHT22;27089;50.022;7.604;2022-12-07T00:11:11;3.60;99.90
41344;DHT22;27089;50.022;7.604;2022-12-07T00:13:39;3.60;99.90
41344;DHT22;27089;50.022;7.604;2022-12-07T00:16:08;3.60;99.90
41344;DHT22;27089;50.022;7.604;2022-12-07T00:18:35;3.60;99.90
41344;DHT22;27089;50.022;7.604;2022-12-07T00:21:04;3.60;99.90
41344;DHT22;27089;50.022;7.604;2022-12-07T00:23:34;3.60;99.90
41344;DHT22;27089;50.022;7.604;2022-12-07T00:26:05;3.60;99.90
41344;DHT22;27089;50.022;7.604;2022-12-07T00:28:32;3.60;99.90
41344;DHT22;27089;50.022;7.604;2022-12-07T00:31:02;3.50;99.90
41344;DHT22;27089;50.022;7.604;2022-12-07T00:33:29;3.50;99.90
41344;DHT22;27089;50.022;7.604;2022-12-07T00:35:56;3.60;99.90
41344;DHT22;27089;50.022;7.604;2022-12-07T00:38:24;3.50;99.90
41344;DHT22;27089;50.022;7.604;2022-12-07T00:40:56;3.50;99.90
41344;DHT22;27089;50.022;7.604;2022-12-07T00:43:23;3.50;99.90
41344;DHT22;27089;50.022;7.604;2022-12-07T00:45:50;3.50;99.90
41344;DHT22;27089;50.022;7.604;2022-12-07T00:48:17;3.50;99.90
41344;DHT22;27089;50.022;7.604;2022-12-07T00:50:44;3.60;99.90
41344;DHT22;27089;50.022;7.604;2022-12-07T00:53:11;3.60;99.90
41344;DHT22;27089;50.022;7.604;2022-12-07T00:55:38;3.60;99.90
41344;DHT22;27089;50.022;7.604;2022-12-07T00:58:07;3.60;99.90
41344;DHT22;27089;50.022;7.604;2022-12-07T01:00:36;3.60;99.90
41344;DHT22;27089;50.022;7.604;2022-12-07T01:03:03;3.60;99.90
41344;DHT22;27089;50.022;7.604;2022-12-07T01:05:30;3.60;99.90
41344;DHT22;27089;50.022;7.604;2022-12-07T01:07:57;3.60;99.90
41344;DHT22;27089;50.022;7.604;2022-12-07T01:10:25;3.70;99.90
41344;DHT22;27089;50.022;7.604;2022-12-07T01:12:52;3.60;99.90
41344;DHT22;27089;50.022;7.604;2022-12-07T01:15:20;3.60;99.90
41344;DHT22;27089;50.022;7.604;2022-12-07T01:17:47;3.60;99.90
41344;DHT22;27089;50.022;7.604;2022-12-07T01:20:14;3.60;99.90
41344;DHT22;27089;50.022;7.604;2022-12-07T01:22:43;3.60;99.90
41344;DHT22;27089;50.022;7.604;2022-12-07T01:25:11;3.60;99.90
41344;DHT22;27089;50.022;7.604;2022-12-07T01:27:38;3.60;99.90
41344;DHT22;27089;50.022;7.604;2022-12-07T01:30:06;3.70;99.90
41344;DHT22;27089;50.022;7.604;2022-12-07T01:32:35;3.70;99.90
41344;DHT22;27089;50.022;7.604;2022-12-07T01:35:02;3.60;99.90
41344;DHT22;27089;50.022;7.604;2022-12-07T01:37:34;3.60;99.90
41344;DHT22;27089;50.022;7.604;2022-12-07T01:40:01;3.70;99.90
41344;DHT22;27089;50.022;7.604;2022-12-07T01:42:29;3.60;99.90
41344;DHT22;27089;50.022;7.604;2022-12-07T01:48:14;3.60;99.90
41344;DHT22;27089;50.022;7.604;2022-12-07T01:50:44;3.70;99.90
41344;DHT22;27089;50.022;7.604;2022-12-07T01:53:12;3.70;99.90
41344;DHT22;27089;50.022;7.604;2022-12-07T01:55:43;3.80;99.90
41344;DHT22;27089;50.022;7.604;2022-12-07T01:58:11;3.80;99.90
41344;DHT22;27089;50.022;7.604;2022-12-07T02:00:39;3.80;99.90
41344;DHT22;27089;50.022;7.604;2022-12-07T02:03:09;3.80;99.90
41344;DHT22;27089;50.022;7.604;2022-12-07T02:05:40;3.80;99.90
41344;DHT22;27089;50.022;7.604;2022-12-07T02:08:08;3.90;99.90
41344;DHT22;27089;50.022;7.604;2022-12-07T02:10:36;3.90;99.90
41344;DHT22;27089;50.022;7.604;2022-12-07T02:13:05;3.90;99.90
41344;DHT22;27089;50.022;7.604;2022-12-07T02:15:51;3.90;99.90
41344;DHT22;27089;50.022;7.604;2022-12-07T02:18:25;3.90;99.90
41344;DHT22;27089;50.022;7.604;2022-12-07T02:21:02;3.90;99.90
41344;DHT22;27089;50.022;7.604;2022-12-07T02:27:04;3.90;99.90
41344;DHT22;27089;50.022;7.604;2022-12-07T02:29:38;3.90;99.90
41344;DHT22;27089;50.022;7.604;2022-12-07T02:32:13;3.90;99.90
41344;DHT22;27089;50.022;7.604;2022-12-07T02:34:47;3.80;99.90
41344;DHT22;27089;50.022;7.604;2022-12-07T02:37:26;3.90;99.90
41344;DHT22;27089;50.022;7.604;2022-12-07T02:39:57;3.80;99.90
41344;DHT22;27089;50.022;7.604;2022-12-07T02:42:31;3.90;99.90
41344;DHT22;27089;50.022;7.604;2022-12-07T02:45:01;3.90;99.90
41344;DHT22;27089;50.022;7.604;2022-12-07T02:47:29;3.90;99.90
41344;DHT22;27089;50.022;7.604;2022-12-07T02:49:58;3.90;99.90
41344;DHT22;27089;50.022;7.604;2022-12-07T02:52:25;3.90;99.90
41344;DHT22;27089;50.022;7.604;2022-12-07T02:54:52;3.90;99.90
41344;DHT22;27089;50.022;7.604;2022-12-07T02:57:40;3.90;99.90
41344;DHT22;27089;50.022;7.604;2022-12-07T03:00:14;3.90;99.90
41344;DHT22;27089;50.022;7.604;2022-12-07T03:02:50;3.90;99.90
41344;DHT22;27089;50.022;7.604;2022-12-07T03:05:48;4.00;99.90
41344;DHT22;27089;50.022;7.604;2022-12-07T03:08:23;4.00;99.90
41344;DHT22;27089;50.022;7.604;2022-12-07T03:10:56;4.00;99.90
41344;DHT22;27089;50.022;7.604;2022-12-07T03:13:29;4.00;99.90
41344;DHT22;27089;50.022;7.604;2022-12-07T03:16:03;4.00;99.90
41344;DHT22;27089;50.022;7.604;2022-12-07T03:18:35;4.00;99.90
41344;DHT22;27089;50.022;7.604;2022-12-07T03:21:08;4.00;99.90
41344;DHT22;27089;50.022;7.604;2022-12-07T03:23:39;4.00;99.90
41344;DHT22;27089;50.022;7.604;2022-12-07T03:26:09;4.00;99.90
41344;DHT22;27089;50.022;7.604;2022-12-07T03:28:41;4.00;99.90
41344;DHT22;27089;50.022;7.604;2022-12-07T03:31:13;4.00;99.90
41344;DHT22;27089;50.022;7.604;2022-12-07T03:33:47;4.00;99.90
41344;DHT22;27089;50.022;7.604;2022-12-07T03:36:21;4.00;99.90
41344;DHT22;27089;50.022;7.604;2022-12-07T03:38:52;4.00;99.90
41344;DHT22;27089;50.022;7.604;2022-12-07T03:41:23;4.00;99.90
41344;DHT22;27089;50.022;7.604;2022-12-07T03:43:53;4.00;99.90
41344;DHT22;27089;50.022;7.604;2022-12-07T03:46:27;4.00;99.90
41344;DHT22;27089;50.022;7.604;2022-12-07T03:49:00;4.00;99.90
41344;DHT22;27089;50.022;7.604;2022-12-07T03:51:37;4.10;99.90
41344;DHT22;27089;50.022;7.604;2022-12-07T03:54:11;4.10;99.90
41344;DHT22;27089;50.022;7.604;2022-12-07T03:56:40;4.10;99.90
41344;DHT22;27089;50.022;7.604;2022-12-07T03:59:07;4.10;99.90
41344;DHT22;27089;50.022;7.604;2022-12-07T04:01:36;4.20;99.90
41344;DHT22;27089;50.022;7.604;2022-12-07T04:04:03;4.20;99.90
41344;DHT22;27089;50.022;7.604;2022-12-07T04:06:30;4.20;99.90
41344;DHT22;27089;50.022;7.604;2022-12-07T04:08:57;4.20;99.90
41344;DHT22;27089;50.022;7.604;2022-12-07T04:11:24;4.20;99.90
41344;DHT22;27089;50.022;7.604;2022-12-07T04:13:51;4.20;99.90
41344;DHT22;27089;50.022;7.604;2022-12-07T04:16:36;4.20;99.90
41344;DHT22;27089;50.022;7.604;2022-12-07T04:19:03;4.20;99.90
41344;DHT22;27089;50.022;7.604;2022-12-07T04:21:30;4.20;99.90
41344;DHT22;27089;50.022;7.604;2022-12-07T04:23:57;4.20;99.90
41344;DHT22;27089;50.022;7.604;2022-12-07T04:26:24;4.20;99.90
41344;DHT22;27089;50.022;7.604;2022-12-07T04:28:51;4.20;99.90
41344;DHT22;27089;50.022;7.604;2022-12-07T04:31:18;4.20;99.90
41344;DHT22;27089;50.022;7.604;2022-12-07T04:33:46;4.20;99.90
41344;DHT22;27089;50.022;7.604;2022-12-07T04:36:13;4.20;99.90
41344;DHT22;27089;50.022;7.604;2022-12-07T04:38:40;4.20;99.90
41344;DHT22;27089;50.022;7.604;2022-12-07T04:41:08;4.20;99.90
41344;DHT22;27089;50.022;7.604;2022-12-07T04:43:35;4.20;99.90
41344;DHT22;27089;50.022;7.604;2022-12-07T04:46:03;4.20;99.90
41344;DHT22;27089;50.022;7.604;2022-12-07T04:48:30;4.20;99.90
41344;DHT22;27089;50.022;7.604;2022-12-07T04:50:58;4.20;99.90
41344;DHT22;27089;50.022;7.604;2022-12-07T04:53:25;4.20;99.90
41344;DHT22;27089;50.022;7.604;2022-12-07T04:55:52;4.20;99.90
41344;DHT22;27089;50.022;7.604;2022-12-07T04:58:19;4.20;99.90
41344;DHT22;27089;50.022;7.604;2022-12-07T05:00:46;4.10;99.90
41344;DHT22;27089;50.022;7.604;2022-12-07T05:03:13;4.10;99.90
41344;DHT22;27089;50.022;7.604;2022-12-07T05:05:40;4.10;99.90
41344;DHT22;27089;50.022;7.604;2022-12-07T05:08:08;4.10;99.90
41344;DHT22;27089;50.022;7.604;2022-12-07T05:10:35;4.10;99.90
41344;DHT22;27089;50.022;7.604;2022-12-07T05:13:02;4.10;99.90
41344;DHT22;27089;50.022;7.604;2022-12-07T05:15:29;4.10;99.90
41344;DHT22;27089;50.022;7.604;2022-12-07T05:17:56;4.10;99.90
41344;DHT22;27089;50.022;7.604;2022-12-07T05:20:23;4.10;99.90
41344;DHT22;27089;50.022;7.604;2022-12-07T05:22:50;4.20;99.90
41344;DHT22;27089;50.022;7.604;2022-12-07T05:25:19;4.20;99.90
41344;DHT22;27089;50.022;7.604;2022-12-07T05:27:46;4.10;99.90
41344;DHT22;27089;50.022;7.604;2022-12-07T05:30:13;4.20;99.90
41344;DHT22;27089;50.022;7.604;2022-12-07T05:32:40;4.10;99.90
41344;DHT22;27089;50.022;7.604;2022-12-07T05:35:07;4.10;99.90
41344;DHT22;27089;50.022;7.604;2022-12-07T05:37:35;4.20;99.90
41344;DHT22;27089;50.022;7.604;2022-12-07T05:40:02;4.20;99.90
41344;DHT22;27089;50.022;7.604;2022-12-07T05:42:31;4.20;99.90
41344;DHT22;27089;50.022;7.604;2022-12-07T05:44:58;4.10;99.90
41344;DHT22;27089;50.022;7.604;2022-12-07T05:47:25;4.20;99.90
41344;DHT22;27089;50.022;7.604;2022-12-07T05:49:52;4.20;99.90
41344;DHT22;27089;50.022;7.604;2022-12-07T05:52:18;4.30;99.90
41344;DHT22;27089;50.022;7.604;2022-12-07T05:54:45;4.20;99.90
41344;DHT22;27089;50.022;7.604;2022-12-07T05:57:12;4.20;99.90
41344;DHT22;27089;50.022;7.604;2022-12-07T05:59:41;4.20;99.90
41344;DHT22;27089;50.022;7.604;2022-12-07T06:02:09;4.20;99.90
41344;DHT22;27089;50.022;7.604;2022-12-07T06:04:37;4.30;99.90
41344;DHT22;27089;50.022;7.604;2022-12-07T06:07:05;4.30;99.90
41344;DHT22;27089;50.022;7.604;2022-12-07T06:09:33;4.30;99.90
41344;DHT22;27089;50.022;7.604;2022-12-07T06:12:01;4.30;99.90
41344;DHT22;27089;50.022;7.604;2022-12-07T06:14:47;4.30;99.90
41344;DHT22;27089;50.022;7.604;2022-12-07T06:17:14;4.40;99.90
41344;DHT22;27089;50.022;7.604;2022-12-07T06:19:41;4.40;99.90
41344;DHT22;27089;50.022;7.604;2022-12-07T06:22:11;4.40;99.90
41344;DHT22;27089;50.022;7.604;2022-12-07T06:24:38;4.40;99.90
41344;DHT22;27089;50.022;7.604;2022-12-07T06:27:06;4.40;99.90
41344;DHT22;27089;50.022;7.604;2022-12-07T06:29:33;4.50;99.90
41344;DHT22;27089;50.022;7.604;2022-12-07T06:32:01;4.40;99.90
41344;DHT22;27089;50.022;7.604;2022-12-07T06:34:28;4.40;99.90
41344;DHT22;27089;50.022;7.604;2022-12-07T06:36:56;4.40;99.90
41344;DHT22;27089;50.022;7.604;2022-12-07T06:39:24;4.40;99.90
41344;DHT22;27089;50.022;7.604;2022-12-07T06:41:52;4.40;99.90
41344;DHT22;27089;50.022;7.604;2022-12-07T06:44:20;4.50;99.90
41344;DHT22;27089;50.022;7.604;2022-12-07T06:46:47;4.50;99.90
41344;DHT22;27089;50.022;7.604;2022-12-07T06:49:15;4.50;99.90
41344;DHT22;27089;50.022;7.604;2022-12-07T06:51:43;4.50;99.90
41344;DHT22;27089;50.022;7.604;2022-12-07T06:54:10;4.50;99.90
41344;DHT22;27089;50.022;7.604;2022-12-07T06:56:38;4.40;99.90
41344;DHT22;27089;50.022;7.604;2022-12-07T06:59:06;4.40;99.90
41344;DHT22;27089;50.022;7.604;2022-12-07T07:01:34;4.40;99.90
41344;DHT22;27089;50.022;7.604;2022-12-07T07:04:02;4.40;99.90
41344;DHT22;27089;50.022;7.604;2022-12-07T07:06:30;4.40;99.90
41344;DHT22;27089;50.022;7.604;2022-12-07T07:08:57;4.40;99.90
41344;DHT22;27089;50.022;7.604;2022-12-07T07:11:24;4.40;99.90
41344;DHT22;27089;50.022;7.604;2022-12-07T07:13:51;4.40;99.90
41344;DHT22;27089;50.022;7.604;2022-12-07T07:16:19;4.40;99.90
41344;DHT22;27089;50.022;7.604;2022-12-07T07:18:46;4.40;99.90
41344;DHT22;27089;50.022;7.604;2022-12-07T07:21:13;4.40;99.90
41344;DHT22;27089;50.022;7.604;2022-12-07T07:23:41;4.40;99.90
41344;DHT22;27089;50.022;7.604;2022-12-07T07:26:08;4.40;99.90
41344;DHT22;27089;50.022;7.604;2022-12-07T07:28:35;4.40;99.90
41344;DHT22;27089;50.022;7.604;2022-12-07T07:31:02;4.50;99.90
41344;DHT22;27089;50.022;7.604;2022-12-07T07:33:29;4.50;99.90
41344;DHT22;27089;50.022;7.604;2022-12-07T07:35:56;4.50;99.90
41344;DHT22;27089;50.022;7.604;2022-12-07T07:38:23;4.50;99.90
41344;DHT22;27089;50.022;7.604;2022-12-07T07:40:52;4.50;99.90
41344;DHT22;27089;50.022;7.604;2022-12-07T07:43:19;4.60;99.90
41344;DHT22;27089;50.022;7.604;2022-12-07T07:45:46;4.50;99.90
41344;DHT22;27089;50.022;7.604;2022-12-07T07:48:12;4.50;99.90
41344;DHT22;27089;50.022;7.604;2022-12-07T07:50:40;4.60;99.90
41344;DHT22;27089;50.022;7.604;2022-12-07T07:53:06;4.60;99.90
41344;DHT22;27089;50.022;7.604;2022-12-07T07:55:34;4.60;99.90
41344;DHT22;27089;50.022;7.604;2022-12-07T07:58:02;4.60;99.90
41344;DHT22;27089;50.022;7.604;2022-12-07T08:00:29;4.70;99.90
41344;DHT22;27089;50.022;7.604;2022-12-07T08:02:56;4.70;99.90
41344;DHT22;27089;50.022;7.604;2022-12-07T08:05:23;4.70;99.90
41344;DHT22;27089;50.022;7.604;2022-12-07T08:07:50;4.70;99.90
41344;DHT22;27089;50.022;7.604;2022-12-07T08:10:17;4.70;99.90
41344;DHT22;27089;50.022;7.604;2022-12-07T08:12:43;4.70;99.90
41344;DHT22;27089;50.022;7.604;2022-12-07T08:15:30;4.70;99.90
41344;DHT22;27089;50.022;7.604;2022-12-07T08:17:57;4.70;99.90
41344;DHT22;27089;50.022;7.604;2022-12-07T08:20:25;4.70;99.90
41344;DHT22;27089;50.022;7.604;2022-12-07T08:22:52;4.80;99.90
41344;DHT22;27089;50.022;7.604;2022-12-07T08:25:19;4.80;99.90
41344;DHT22;27089;50.022;7.604;2022-12-07T08:27:47;4.80;99.90
41344;DHT22;27089;50.022;7.604;2022-12-07T08:30:14;4.80;99.90
41344;DHT22;27089;50.022;7.604;2022-12-07T08:32:44;4.80;99.90
41344;DHT22;27089;50.022;7.604;2022-12-07T08:35:11;4.80;99.90
41344;DHT22;27089;50.022;7.604;2022-12-07T08:37:39;4.80;99.90
41344;DHT22;27089;50.022;7.604;2022-12-07T08:40:07;4.90;99.90
41344;DHT22;27089;50.022;7.604;2022-12-07T08:42:34;4.90;99.90
41344;DHT22;27089;50.022;7.604;2022-12-07T08:45:06;4.90;99.90
41344;DHT22;27089;50.022;7.604;2022-12-07T08:47:34;4.90;99.90
41344;DHT22;27089;50.022;7.604;2022-12-07T08:50:04;5.00;99.90
41344;DHT22;27089;50.022;7.604;2022-12-07T08:52:33;5.00;99.90
41344;DHT22;27089;50.022;7.604;2022-12-07T08:55:00;4.90;99.90
41344;DHT22;27089;50.022;7.604;2022-12-07T08:57:29;5.00;99.90
41344;DHT22;27089;50.022;7.604;2022-12-07T08:59:56;5.00;99.90
41344;DHT22;27089;50.022;7.604;2022-12-07T09:02:24;5.10;99.90
41344;DHT22;27089;50.022;7.604;2022-12-07T09:04:51;5.10;99.90
41344;DHT22;27089;50.022;7.604;2022-12-07T09:07:19;5.10;99.90
41344;DHT22;27089;50.022;7.604;2022-12-07T09:09:46;5.20;99.90
41344;DHT22;27089;50.022;7.604;2022-12-07T09:12:13;5.40;99.90
41344;DHT22;27089;50.022;7.604;2022-12-07T09:14:40;5.60;99.90
41344;DHT22;27089;50.022;7.604;2022-12-07T09:17:07;5.90;99.90
41344;DHT22;27089;50.022;7.604;2022-12-07T09:19:35;6.10;99.90
41344;DHT22;27089;50.022;7.604;2022-12-07T09:22:03;6.30;99.90
41344;DHT22;27089;50.022;7.604;2022-12-07T09:24:32;6.70;99.90
41344;DHT22;27089;50.022;7.604;2022-12-07T09:26:59;7.00;99.90
41344;DHT22;27089;50.022;7.604;2022-12-07T09:29:26;7.30;99.90
41344;DHT22;27089;50.022;7.604;2022-12-07T09:31:53;7.30;99.90
41344;DHT22;27089;50.022;7.604;2022-12-07T09:34:20;7.20;99.90
41344;DHT22;27089;50.022;7.604;2022-12-07T09:36:48;7.00;99.90
41344;DHT22;27089;50.022;7.604;2022-12-07T09:39:15;6.70;99.90
41344;DHT22;27089;50.022;7.604;2022-12-07T09:41:44;6.60;99.90
41344;DHT22;27089;50.022;7.604;2022-12-07T09:44:13;6.50;99.90
41344;DHT22;27089;50.022;7.604;2022-12-07T09:46:43;6.40;99.90
41344;DHT22;27089;50.022;7.604;2022-12-07T09:49:12;6.40;99.90
41344;DHT22;27089;50.022;7.604;2022-12-07T09:51:40;6.40;99.90
41344;DHT22;27089;50.022;7.604;2022-12-07T09:54:09;6.50;99.90
41344;DHT22;27089;50.022;7.604;2022-12-07T09:56:39;6.70;99.90
41344;DHT22;27089;50.022;7.604;2022-12-07T09:59:14;6.90;99.90
41344;DHT22;27089;50.022;7.604;2022-12-07T10:01:44;7.00;99.90
41344;DHT22;27089;50.022;7.604;2022-12-07T10:04:13;7.10;99.90
41344;DHT22;27089;50.022;7.604;2022-12-07T10:06:42;7.20;99.90
41344;DHT22;27089;50.022;7.604;2022-12-07T10:09:11;7.20;99.90
41344;DHT22;27089;50.022;7.604;2022-12-07T10:11:58;7.20;99.90
41344;DHT22;27089;50.022;7.604;2022-12-07T10:14:29;7.10;99.90
41344;DHT22;27089;50.022;7.604;2022-12-07T10:16:58;7.00;99.90
41344;DHT22;27089;50.022;7.604;2022-12-07T10:19:27;6.90;99.90
41344;DHT22;27089;50.022;7.604;2022-12-07T10:22:09;7.00;99.90
41344;DHT22;27089;50.022;7.604;2022-12-07T10:24:36;7.10;99.90
41344;DHT22;27089;50.022;7.604;2022-12-07T10:27:05;7.10;99.90
41344;DHT22;27089;50.022;7.604;2022-12-07T10:29:36;7.20;99.90
41344;DHT22;27089;50.022;7.604;2022-12-07T10:32:06;7.10;99.90
41344;DHT22;27089;50.022;7.604;2022-12-07T10:34:35;7.10;99.90
41344;DHT22;27089;50.022;7.604;2022-12-07T10:37:17;7.00;99.90
41344;DHT22;27089;50.022;7.604;2022-12-07T10:39:47;7.00;99.90
41344;DHT22;27089;50.022;7.604;2022-12-07T10:42:19;6.90;99.90
41344;DHT22;27089;50.022;7.604;2022-12-07T10:44:48;6.80;99.90
41344;DHT22;27089;50.022;7.604;2022-12-07T10:47:29;6.70;99.90
41344;DHT22;27089;50.022;7.604;2022-12-07T10:50:29;6.70;99.90
41344;DHT22;27089;50.022;7.604;2022-12-07T10:53:10;6.50;99.90
41344;DHT22;27089;50.022;7.604;2022-12-07T10:55:49;6.50;99.90
41344;DHT22;27089;50.022;7.604;2022-12-07T10:58:31;6.40;99.90
41344;DHT22;27089;50.022;7.604;2022-12-07T11:01:12;6.40;99.90
41344;DHT22;27089;50.022;7.604;2022-12-07T11:03:52;6.50;99.90
41344;DHT22;27089;50.022;7.604;2022-12-07T11:06:27;6.60;99.90
41344;DHT22;27089;50.022;7.604;2022-12-07T11:09:04;6.70;99.90
41344;DHT22;27089;50.022;7.604;2022-12-07T11:11:37;6.80;99.90
41344;DHT22;27089;50.022;7.604;2022-12-07T11:14:14;6.90;99.90
41344;DHT22;27089;50.022;7.604;2022-12-07T11:16:53;7.00;99.90
41344;DHT22;27089;50.022;7.604;2022-12-07T11:19:46;7.00;99.90
41344;DHT22;27089;50.022;7.604;2022-12-07T11:22:22;7.20;99.90
41344;DHT22;27089;50.022;7.604;2022-12-07T11:24:56;7.30;99.90
41344;DHT22;27089;50.022;7.604;2022-12-07T11:27:33;7.20;99.90
41344;DHT22;27089;50.022;7.604;2022-12-07T11:30:13;6.90;99.90
41344;DHT22;27089;50.022;7.604;2022-12-07T11:33:01;6.90;99.90
41344;DHT22;27089;50.022;7.604;2022-12-07T11:35:38;6.80;99.90
41344;DHT22;27089;50.022;7.604;2022-12-07T11:38:14;6.60;99.90
41344;DHT22;27089;50.022;7.604;2022-12-07T11:40:43;6.50;99.90
41344;DHT22;27089;50.022;7.604;2022-12-07T11:43:18;6.50;99.90
41344;DHT22;27089;50.022;7.604;2022-12-07T11:45:50;6.60;99.90
41344;DHT22;27089;50.022;7.604;2022-12-07T11:48:24;6.60;99.90
41344;DHT22;27089;50.022;7.604;2022-12-07T11:50:57;6.60;99.90
41344;DHT22;27089;50.022;7.604;2022-12-07T11:53:29;6.70;99.90
41344;DHT22;27089;50.022;7.604;2022-12-07T11:56:03;6.80;99.90
41344;DHT22;27089;50.022;7.604;2022-12-07T11:58:42;6.80;99.90
41344;DHT22;27089;50.022;7.604;2022-12-07T12:01:35;6.80;99.90
41344;DHT22;27089;50.022;7.604;2022-12-07T12:04:16;6.80;99.90
41344;DHT22;27089;50.022;7.604;2022-12-07T12:06:45;6.80;99.90
41344;DHT22;27089;50.022;7.604;2022-12-07T12:09:14;6.80;99.90
41344;DHT22;27089;50.022;7.604;2022-12-07T12:11:56;6.80;99.90
41344;DHT22;27089;50.022;7.604;2022-12-07T12:14:43;6.80;99.90
41344;DHT22;27089;50.022;7.604;2022-12-07T12:20:20;6.90;99.90
41344;DHT22;27089;50.022;7.604;2022-12-07T12:22:53;6.90;99.90
41344;DHT22;27089;50.022;7.604;2022-12-07T12:25:24;6.90;99.90
41344;DHT22;27089;50.022;7.604;2022-12-07T12:27:53;6.90;99.90
41344;DHT22;27089;50.022;7.604;2022-12-07T12:30:30;6.90;99.90
41344;DHT22;27089;50.022;7.604;2022-12-07T12:33:06;6.90;99.90
41344;DHT22;27089;50.022;7.604;2022-12-07T12:35:41;6.90;99.90
41344;DHT22;27089;50.022;7.604;2022-12-07T12:38:29;6.90;99.90
41344;DHT22;27089;50.022;7.604;2022-12-07T12:40:56;6.80;99.90
41344;DHT22;27089;50.022;7.604;2022-12-07T12:43:43;6.80;99.90
41344;DHT22;27089;50.022;7.604;2022-12-07T12:49:34;6.70;99.90
41344;DHT22;27089;50.022;7.604;2022-12-07T12:55:17;6.10;99.90
41344;DHT22;27089;50.022;7.604;2022-12-07T12:58:31;6.00;99.90
41344;DHT22;27089;50.022;7.604;2022-12-07T13:01:37;6.00;99.90
41344;DHT22;27089;50.022;7.604;2022-12-07T13:07:04;6.30;99.90
41344;DHT22;27089;50.022;7.604;2022-12-07T13:09:33;6.40;99.90
41344;DHT22;27089;50.022;7.604;2022-12-07T13:12:04;6.50;99.90
41344;DHT22;27089;50.022;7.604;2022-12-07T13:14:56;6.60;99.90
41344;DHT22;27089;50.022;7.604;2022-12-07T13:17:56;6.80;99.90
41344;DHT22;27089;50.022;7.604;2022-12-07T13:20:46;6.90;99.90
41344;DHT22;27089;50.022;7.604;2022-12-07T13:23:18;7.00;99.90
41344;DHT22;27089;50.022;7.604;2022-12-07T13:26:00;7.10;99.90
41344;DHT22;27089;50.022;7.604;2022-12-07T13:28:33;7.20;99.90
41344;DHT22;27089;50.022;7.604;2022-12-07T13:34:04;7.60;99.90
41344;DHT22;27089;50.022;7.604;2022-12-07T13:36:34;7.70;99.90
41344;DHT22;27089;50.022;7.604;2022-12-07T13:39:23;7.70;99.90
41344;DHT22;27089;50.022;7.604;2022-12-07T13:41:52;7.60;99.90
41344;DHT22;27089;50.022;7.604;2022-12-07T13:44:21;7.40;99.90
41344;DHT22;27089;50.022;7.604;2022-12-07T13:46:54;7.30;99.90
41344;DHT22;27089;50.022;7.604;2022-12-07T13:49:24;7.10;99.90
41344;DHT22;27089;50.022;7.604;2022-12-07T13:51:53;7.00;99.90
41344;DHT22;27089;50.022;7.604;2022-12-07T13:54:20;6.80;99.90
41344;DHT22;27089;50.022;7.604;2022-12-07T13:56:50;6.70;99.90
41344;DHT22;27089;50.022;7.604;2022-12-07T13:59:19;6.60;99.90
41344;DHT22;27089;50.022;7.604;2022-12-07T14:01:49;6.60;99.90
41344;DHT22;27089;50.022;7.604;2022-12-07T14:04:26;6.50;99.90
41344;DHT22;27089;50.022;7.604;2022-12-07T14:06:56;6.40;99.90
41344;DHT22;27089;50.022;7.604;2022-12-07T14:09:24;6.40;99.90
41344;DHT22;27089;50.022;7.604;2022-12-07T14:11:55;6.40;99.90
41344;DHT22;27089;50.022;7.604;2022-12-07T14:14:24;6.30;99.90
41344;DHT22;27089;50.022;7.604;2022-12-07T14:16:58;6.20;99.90
41344;DHT22;27089;50.022;7.604;2022-12-07T14:19:47;6.10;99.90
41344;DHT22;27089;50.022;7.604;2022-12-07T14:22:24;6.10;99.90
41344;DHT22;27089;50.022;7.604;2022-12-07T14:24:58;6.10;99.90
41344;DHT22;27089;50.022;7.604;2022-12-07T14:27:32;6.10;99.90
41344;DHT22;27089;50.022;7.604;2022-12-07T14:30:00;6.00;99.90
41344;DHT22;27089;50.022;7.604;2022-12-07T14:32:29;6.00;99.90
41344;DHT22;27089;50.022;7.604;2022-12-07T14:34:58;6.00;99.90
41344;DHT22;27089;50.022;7.604;2022-12-07T14:37:27;6.00;99.90
41344;DHT22;27089;50.022;7.604;2022-12-07T14:39:55;6.00;99.90
41344;DHT22;27089;50.022;7.604;2022-12-07T14:42:26;6.00;99.90
41344;DHT22;27089;50.022;7.604;2022-12-07T14:44:55;6.00;99.90
41344;DHT22;27089;50.022;7.604;2022-12-07T14:47:22;5.90;99.90
41344;DHT22;27089;50.022;7.604;2022-12-07T14:49:49;5.80;99.90
41344;DHT22;27089;50.022;7.604;2022-12-07T14:52:19;5.80;99.90
41344;DHT22;27089;50.022;7.604;2022-12-07T14:54:47;5.80;99.90
41344;DHT22;27089;50.022;7.604;2022-12-07T14:57:14;5.80;99.90
41344;DHT22;27089;50.022;7.604;2022-12-07T14:59:41;5.80;99.90
41344;DHT22;27089;50.022;7.604;2022-12-07T15:02:14;5.70;99.90
41344;DHT22;27089;50.022;7.604;2022-12-07T15:04:41;5.70;99.90
41344;DHT22;27089;50.022;7.604;2022-12-07T15:07:14;5.70;99.90
41344;DHT22;27089;50.022;7.604;2022-12-07T15:09:42;5.60;99.90
41344;DHT22;27089;50.022;7.604;2022-12-07T15:12:08;5.50;99.90
41344;DHT22;27089;50.022;7.604;2022-12-07T15:14:35;5.40;99.90
41344;DHT22;27089;50.022;7.604;2022-12-07T15:17:03;5.30;99.90
41344;DHT22;27089;50.022;7.604;2022-12-07T15:19:31;5.30;99.90
41344;DHT22;27089;50.022;7.604;2022-12-07T15:21:58;5.30;99.90
41344;DHT22;27089;50.022;7.604;2022-12-07T15:24:25;5.20;99.90
41344;DHT22;27089;50.022;7.604;2022-12-07T15:26:53;5.20;99.90
41344;DHT22;27089;50.022;7.604;2022-12-07T15:29:20;5.20;99.90
41344;DHT22;27089;50.022;7.604;2022-12-07T15:31:48;5.20;99.90
41344;DHT22;27089;50.022;7.604;2022-12-07T15:34:15;5.20;99.90
41344;DHT22;27089;50.022;7.604;2022-12-07T15:36:44;5.20;99.90
41344;DHT22;27089;50.022;7.604;2022-12-07T15:39:11;5.20;99.90
41344;DHT22;27089;50.022;7.604;2022-12-07T15:41:38;5.20;99.90
41344;DHT22;27089;50.022;7.604;2022-12-07T15:44:05;5.20;99.90
41344;DHT22;27089;50.022;7.604;2022-12-07T15:46:50;5.20;99.90
41344;DHT22;27089;50.022;7.604;2022-12-07T15:49:18;5.10;99.90
41344;DHT22;27089;50.022;7.604;2022-12-07T15:51:47;5.10;99.90
41344;DHT22;27089;50.022;7.604;2022-12-07T15:54:19;5.00;99.90
41344;DHT22;27089;50.022;7.604;2022-12-07T15:56:46;4.80;99.90
41344;DHT22;27089;50.022;7.604;2022-12-07T15:59:13;4.70;99.90
41344;DHT22;27089;50.022;7.604;2022-12-07T16:01:40;4.60;99.90
41344;DHT22;27089;50.022;7.604;2022-12-07T16:04:07;4.50;99.90
41344;DHT22;27089;50.022;7.604;2022-12-07T16:06:34;4.30;99.90
41344;DHT22;27089;50.022;7.604;2022-12-07T16:09:03;4.20;99.90
41344;DHT22;27089;50.022;7.604;2022-12-07T16:11:31;4.10;99.90
41344;DHT22;27089;50.022;7.604;2022-12-07T16:14:00;4.00;99.90
41344;DHT22;27089;50.022;7.604;2022-12-07T16:16:27;3.90;99.90
41344;DHT22;27089;50.022;7.604;2022-12-07T16:18:54;3.90;99.90
41344;DHT22;27089;50.022;7.604;2022-12-07T16:21:21;3.80;99.90
41344;DHT22;27089;50.022;7.604;2022-12-07T16:23:48;3.80;99.90
41344;DHT22;27089;50.022;7.604;2022-12-07T16:26:19;3.80;99.90
41344;DHT22;27089;50.022;7.604;2022-12-07T16:28:49;3.90;99.90